createdAt,value
2023-01-19T00:00:27.483Z,14.32
2023-01-19T00:01:29.055Z,14.30
2023-01-19T00:02:30.649Z,14.28
2023-01-19T00:03:32.239Z,14.31
2023-01-19T00:04:33.741Z,14.36
2023-01-19T00:05:36.017Z,14.32
2023-01-19T00:06:37.620Z,14.33
2023-01-19T00:07:39.297Z,14.34
2023-01-19T00:08:41.145Z,14.34
2023-01-19T00:09:46.206Z,14.38
2023-01-19T00:10:51.206Z,14.38
2023-01-19T00:11:52.763Z,14.38
2023-01-19T00:12:54.359Z,14.41
2023-01-19T00:13:56.110Z,14.42
2023-01-19T00:14:57.617Z,14.43
2023-01-19T00:15:59.280Z,14.38
2023-01-19T00:17:01.864Z,14.41
2023-01-19T00:18:03.558Z,14.40
2023-01-19T00:19:05.146Z,14.40
2023-01-19T00:20:09.109Z,14.44
2023-01-19T00:21:11.012Z,14.42
2023-01-19T00:22:12.527Z,14.47
2023-01-19T00:23:15.743Z,14.49
2023-01-19T00:24:17.260Z,14.40
2023-01-19T00:25:18.845Z,14.38
2023-01-19T00:26:22.224Z,14.36
2023-01-19T00:27:24.628Z,14.33
2023-01-19T00:28:26.200Z,14.32
2023-01-19T00:29:30.823Z,14.33
2023-01-19T00:30:32.358Z,14.36
2023-01-19T00:31:36.251Z,14.37
2023-01-19T00:32:37.827Z,14.38
2023-01-19T00:33:39.343Z,14.39
2023-01-19T00:34:42.752Z,14.39
2023-01-19T00:35:44.472Z,14.42
2023-01-19T00:36:45.956Z,14.42
2023-01-19T00:37:47.491Z,14.45
2023-01-19T00:38:49.095Z,14.42
2023-01-19T00:39:50.645Z,14.36
2023-01-19T00:40:52.241Z,14.37
2023-01-19T00:42:12.514Z,14.38
2023-01-19T00:43:14.089Z,14.39
2023-01-19T00:44:15.621Z,14.41
2023-01-19T00:45:19.852Z,14.39
2023-01-19T00:46:27.061Z,14.37
2023-01-19T00:47:28.736Z,14.37
2023-01-19T00:48:30.818Z,14.34
2023-01-19T00:49:32.359Z,14.36
2023-01-19T00:50:34.062Z,14.40
2023-01-19T00:51:35.674Z,14.43
2023-01-19T00:52:38.736Z,14.43
2023-01-19T00:53:40.250Z,14.42
2023-01-19T00:54:41.808Z,14.44
2023-01-19T00:55:43.416Z,14.47
2023-01-19T00:56:45.009Z,14.47
2023-01-19T00:57:46.685Z,14.52
2023-01-19T00:58:48.185Z,14.49
2023-01-19T00:59:49.756Z,14.50
2023-01-19T01:00:53.846Z,14.44
2023-01-19T01:01:55.548Z,14.41
2023-01-19T01:02:57.639Z,14.42
2023-01-19T01:03:59.269Z,14.41
2023-01-19T01:05:02.960Z,14.39
2023-01-19T01:06:07.053Z,14.40
2023-01-19T01:07:08.641Z,14.38
2023-01-19T01:08:10.204Z,14.38
2023-01-19T01:09:12.036Z,14.38
2023-01-19T01:10:18.501Z,14.38
2023-01-19T01:11:20.175Z,14.38
2023-01-19T01:12:21.712Z,14.38
2023-01-19T01:13:26.223Z,14.42
2023-01-19T01:14:29.120Z,14.40
2023-01-19T01:15:30.811Z,14.42
2023-01-19T01:16:32.400Z,14.43
2023-01-19T01:17:34.066Z,14.44
2023-01-19T01:18:35.624Z,14.44
2023-01-19T01:19:38.569Z,14.46
2023-01-19T01:20:40.105Z,14.48
2023-01-19T01:21:41.700Z,14.51
2023-01-19T01:22:47.609Z,14.52
2023-01-19T01:23:49.269Z,14.52
2023-01-19T01:24:51.079Z,14.54
2023-01-19T01:25:52.627Z,14.54
2023-01-19T01:26:54.155Z,14.51
2023-01-19T01:27:55.779Z,14.52
2023-01-19T01:28:57.367Z,14.54
2023-01-19T01:29:58.941Z,14.53
2023-01-19T01:31:00.538Z,14.53
2023-01-19T01:32:02.356Z,14.54
2023-01-19T01:33:03.991Z,14.52
2023-01-19T01:34:05.769Z,14.55
2023-01-19T01:35:09.125Z,14.52
2023-01-19T01:36:11.834Z,14.50
2023-01-19T01:37:13.594Z,14.52
2023-01-19T01:38:15.626Z,14.55
2023-01-19T01:39:17.188Z,14.57
2023-01-19T01:40:21.777Z,14.62
2023-01-19T01:41:25.376Z,14.61
2023-01-19T01:42:29.285Z,14.59
2023-01-19T01:43:46.188Z,14.59
2023-01-19T01:44:54.596Z,14.60
2023-01-19T01:45:56.145Z,14.63
2023-01-19T01:46:58.514Z,14.60
2023-01-19T01:48:08.766Z,14.61
2023-01-19T01:49:16.723Z,14.60
2023-01-19T01:50:22.575Z,14.59
2023-01-19T01:51:46.919Z,14.58
2023-01-19T01:53:12.402Z,14.55
2023-01-19T01:54:32.925Z,14.55
2023-01-19T01:55:38.293Z,14.56
2023-01-19T01:56:44.006Z,14.62
2023-01-19T01:57:51.242Z,14.62
2023-01-19T01:58:53.458Z,14.60
2023-01-19T01:59:57.428Z,14.60
2023-01-19T02:01:17.329Z,14.58
2023-01-19T02:02:44.635Z,14.63
2023-01-19T02:03:46.295Z,14.62
2023-01-19T02:04:51.555Z,14.57
2023-01-19T02:05:57.670Z,14.54
2023-01-19T02:07:17.930Z,14.59
2023-01-19T02:08:46.788Z,14.59
2023-01-19T02:10:07.117Z,14.57
2023-01-19T02:11:27.477Z,14.56
2023-01-19T02:12:48.136Z,14.54
2023-01-19T02:13:49.852Z,14.50
2023-01-19T02:14:51.591Z,14.48
2023-01-19T02:15:55.868Z,14.45
2023-01-19T02:16:57.834Z,14.47
2023-01-19T02:17:59.595Z,14.51
2023-01-19T02:19:01.343Z,14.47
2023-01-19T02:20:03.371Z,14.47
2023-01-19T02:21:38.701Z,14.46
2023-01-19T02:22:51.834Z,14.49
2023-01-19T02:23:58.747Z,14.49
2023-01-19T02:25:00.847Z,14.47
2023-01-19T02:26:03.288Z,14.48
2023-01-19T02:27:07.202Z,14.50
2023-01-19T02:28:09.113Z,14.50
2023-01-19T02:29:14.561Z,14.49
2023-01-19T02:30:16.770Z,14.42
2023-01-19T02:31:18.907Z,14.41
2023-01-19T02:32:20.486Z,14.43
2023-01-19T02:33:22.200Z,14.47
2023-01-19T02:34:23.828Z,14.45
2023-01-19T02:35:26.024Z,14.44
2023-01-19T02:36:35.250Z,14.45
2023-01-19T02:37:40.211Z,14.42
2023-01-19T02:38:44.508Z,14.40
2023-01-19T02:39:52.114Z,14.42
2023-01-19T02:40:57.933Z,14.42
2023-01-19T02:42:04.145Z,14.45
2023-01-19T02:43:08.805Z,14.45
2023-01-19T02:44:12.684Z,14.44
2023-01-19T02:45:18.205Z,14.42
2023-01-19T02:46:19.751Z,14.42
2023-01-19T02:47:21.386Z,14.42
2023-01-19T02:48:22.979Z,14.42
2023-01-19T02:49:28.399Z,14.43
2023-01-19T02:50:35.469Z,14.45
2023-01-19T02:51:37.145Z,14.41
2023-01-19T02:52:38.803Z,14.38
2023-01-19T02:53:57.127Z,14.39
2023-01-19T02:55:21.005Z,14.41
2023-01-19T02:56:53.373Z,14.41
2023-01-19T02:58:07.354Z,14.40
2023-01-19T02:59:30.592Z,14.42
2023-01-19T03:00:38.042Z,14.36
2023-01-19T03:01:51.853Z,14.32
2023-01-19T03:03:05.326Z,14.34
2023-01-19T03:04:22.887Z,14.35
2023-01-19T03:05:35.897Z,14.34
2023-01-19T03:06:47.701Z,14.30
2023-01-19T03:08:05.232Z,14.33
2023-01-19T03:09:28.487Z,14.27
2023-01-19T03:10:47.218Z,14.25
2023-01-19T03:11:59.832Z,14.20
2023-01-19T03:13:32.207Z,14.18
2023-01-19T03:14:40.835Z,14.18
2023-01-19T03:16:09.214Z,14.17
2023-01-19T03:17:12.548Z,14.15
2023-01-19T03:18:19.361Z,14.20
2023-01-19T03:19:32.801Z,14.22
2023-01-19T03:20:34.434Z,14.28
2023-01-19T03:21:37.755Z,14.23
2023-01-19T03:22:39.624Z,14.21
2023-01-19T03:23:45.098Z,14.26
2023-01-19T03:24:48.217Z,14.23
2023-01-19T03:25:51.544Z,14.18
2023-01-19T03:26:58.872Z,14.17
2023-01-19T03:28:01.976Z,14.15
2023-01-19T03:29:07.036Z,14.14
2023-01-19T03:30:13.939Z,14.17
2023-01-19T03:31:21.289Z,14.15
2023-01-19T03:32:30.355Z,14.16
2023-01-19T03:33:35.220Z,14.18
2023-01-19T03:34:39.000Z,14.20
2023-01-19T03:35:46.231Z,14.21
2023-01-19T03:36:54.915Z,14.18
2023-01-19T03:37:58.545Z,14.22
2023-01-19T03:39:03.341Z,14.18
2023-01-19T03:40:06.539Z,14.17
2023-01-19T03:41:16.750Z,14.14
2023-01-19T03:42:19.295Z,14.15
2023-01-19T03:43:23.430Z,14.14
2023-01-19T03:44:27.663Z,14.15
2023-01-19T03:45:33.541Z,14.15
2023-01-19T03:46:35.154Z,14.19
2023-01-19T03:47:36.684Z,14.18
2023-01-19T03:48:39.087Z,14.19
2023-01-19T03:49:43.209Z,14.16
2023-01-19T03:50:44.740Z,14.17
2023-01-19T03:51:46.571Z,14.18
2023-01-19T03:53:00.739Z,14.20
2023-01-19T03:54:02.565Z,14.20
2023-01-19T03:55:05.878Z,14.18
2023-01-19T03:56:17.138Z,14.17
2023-01-19T03:57:18.695Z,14.18
2023-01-19T03:58:20.234Z,14.15
2023-01-19T03:59:21.999Z,14.15
2023-01-19T04:00:24.185Z,14.16
2023-01-19T04:01:26.180Z,14.16
2023-01-19T04:02:27.858Z,14.12
2023-01-19T04:03:29.445Z,14.14
2023-01-19T04:04:31.017Z,14.13
2023-01-19T04:05:33.678Z,14.12
2023-01-19T04:06:35.404Z,14.12
2023-01-19T04:07:36.935Z,14.08
2023-01-19T04:08:38.614Z,14.09
2023-01-19T04:09:40.499Z,14.12
2023-01-19T04:10:42.012Z,14.09
2023-01-19T04:11:43.519Z,14.11
2023-01-19T04:12:45.554Z,14.11
2023-01-19T04:13:47.128Z,14.09
2023-01-19T04:14:48.650Z,14.14
2023-01-19T04:15:50.179Z,14.14
2023-01-19T04:16:52.353Z,14.11
2023-01-19T04:17:53.896Z,14.06
2023-01-19T04:18:55.758Z,14.06
2023-01-19T04:19:57.267Z,14.07
2023-01-19T04:21:04.838Z,14.09
2023-01-19T04:22:06.391Z,14.04
2023-01-19T04:23:07.976Z,14.06
2023-01-19T04:24:10.733Z,14.08
2023-01-19T04:25:12.269Z,14.00
2023-01-19T04:26:13.868Z,14.03
2023-01-19T04:27:16.413Z,13.98
2023-01-19T04:28:17.905Z,14.01
2023-01-19T04:29:19.503Z,14.07
2023-01-19T04:30:21.351Z,14.06
2023-01-19T04:31:23.345Z,14.02
2023-01-19T04:32:24.984Z,14.00
2023-01-19T04:33:30.627Z,14.00
2023-01-19T04:34:32.825Z,13.98
2023-01-19T04:35:35.273Z,13.98
2023-01-19T04:36:37.171Z,14.00
2023-01-19T04:37:38.785Z,13.94
2023-01-19T04:38:40.316Z,13.98
2023-01-19T04:39:41.856Z,14.01
2023-01-19T04:40:43.527Z,14.00
2023-01-19T04:41:45.076Z,13.97
2023-01-19T04:42:46.794Z,13.99
2023-01-19T04:43:48.344Z,14.00
2023-01-19T04:44:49.874Z,13.99
2023-01-19T04:45:51.902Z,13.99
2023-01-19T04:46:54.045Z,14.00
2023-01-19T04:47:55.665Z,13.99
2023-01-19T04:48:57.222Z,13.99
2023-01-19T04:49:58.770Z,13.90
2023-01-19T04:51:00.305Z,13.90
2023-01-19T04:52:01.986Z,13.91
2023-01-19T04:53:03.830Z,13.89
2023-01-19T04:54:05.454Z,13.89
2023-01-19T04:55:08.094Z,13.93
2023-01-19T04:56:09.627Z,13.99
2023-01-19T04:57:11.262Z,14.01
2023-01-19T04:58:12.810Z,13.96
2023-01-19T04:59:14.713Z,13.96
2023-01-19T05:00:17.755Z,13.97
2023-01-19T05:01:19.471Z,13.97
2023-01-19T05:02:21.015Z,13.92
2023-01-19T05:03:23.586Z,13.92
2023-01-19T05:04:26.517Z,13.97
2023-01-19T05:05:28.182Z,14.00
2023-01-19T05:06:29.997Z,13.98
2023-01-19T05:07:31.700Z,13.98
2023-01-19T05:08:33.313Z,13.91
2023-01-19T05:09:35.441Z,13.97
2023-01-19T05:10:37.011Z,13.92
2023-01-19T05:11:38.700Z,13.90
2023-01-19T05:12:40.357Z,13.95
2023-01-19T05:13:42.079Z,13.93
2023-01-19T05:14:43.885Z,13.93
2023-01-19T05:15:45.481Z,13.94
2023-01-19T05:16:47.103Z,13.97
2023-01-19T05:17:48.663Z,14.01
2023-01-19T05:18:53.357Z,14.00
2023-01-19T05:19:55.002Z,14.03
2023-01-19T05:20:56.594Z,14.07
2023-01-19T05:21:58.405Z,14.02
2023-01-19T05:23:00.396Z,13.97
2023-01-19T05:24:02.121Z,14.00
2023-01-19T05:25:03.840Z,13.98
2023-01-19T05:26:05.560Z,14.00
2023-01-19T05:27:07.329Z,13.94
2023-01-19T05:28:08.962Z,13.92
2023-01-19T05:29:10.617Z,13.91
2023-01-19T05:30:13.403Z,13.98
2023-01-19T05:31:15.020Z,14.02
2023-01-19T05:32:16.625Z,14.01
2023-01-19T05:33:18.195Z,14.04
2023-01-19T05:34:20.209Z,14.02
2023-01-19T05:35:31.362Z,14.02
2023-01-19T05:36:37.007Z,14.00
2023-01-19T05:37:38.562Z,14.03
2023-01-19T05:38:40.117Z,13.99
2023-01-19T05:39:41.698Z,13.99
2023-01-19T05:40:43.354Z,14.02
2023-01-19T05:41:45.610Z,14.01
2023-01-19T05:42:47.260Z,14.04
2023-01-19T05:43:48.822Z,14.01
2023-01-19T05:44:50.416Z,14.05
2023-01-19T05:45:52.269Z,14.00
2023-01-19T05:46:53.945Z,14.04
2023-01-19T05:47:55.859Z,14.03
2023-01-19T05:48:57.640Z,14.11
2023-01-19T05:49:59.256Z,14.03
2023-01-19T05:51:01.751Z,14.06
2023-01-19T05:52:03.466Z,14.07
2023-01-19T05:53:05.024Z,14.07
2023-01-19T05:54:07.853Z,14.04
2023-01-19T05:55:09.604Z,14.08
2023-01-19T05:56:11.807Z,14.08
2023-01-19T05:57:13.374Z,14.09
2023-01-19T05:58:14.962Z,14.04
2023-01-19T05:59:23.970Z,14.03
2023-01-19T06:00:27.579Z,14.07
2023-01-19T06:01:29.196Z,14.08
2023-01-19T06:02:32.619Z,14.05
2023-01-19T06:03:38.226Z,14.06
2023-01-19T06:04:41.576Z,14.06
2023-01-19T06:05:44.652Z,14.11
2023-01-19T06:06:52.122Z,14.20
2023-01-19T06:07:57.346Z,14.15
2023-01-19T06:08:58.888Z,14.12
2023-01-19T06:10:00.480Z,14.08
2023-01-19T06:11:02.055Z,14.08
2023-01-19T06:12:03.828Z,14.11
2023-01-19T06:13:05.551Z,14.09
2023-01-19T06:14:07.081Z,14.12
2023-01-19T06:15:09.034Z,14.15
2023-01-19T06:16:16.628Z,14.14
2023-01-19T06:17:18.315Z,14.24
2023-01-19T06:18:19.931Z,14.28
2023-01-19T06:19:21.563Z,14.37
2023-01-19T06:20:23.133Z,14.37
2023-01-19T06:21:25.218Z,14.30
2023-01-19T06:22:26.753Z,14.30
2023-01-19T06:23:31.057Z,14.30
2023-01-19T06:24:33.022Z,14.30
2023-01-19T06:25:34.587Z,14.35
2023-01-19T06:26:36.166Z,14.36
2023-01-19T06:27:39.811Z,14.33
2023-01-19T06:28:41.438Z,14.33
2023-01-19T06:29:43.068Z,14.37
2023-01-19T06:30:49.851Z,14.31
2023-01-19T06:31:51.478Z,14.31
2023-01-19T06:32:53.717Z,14.31
2023-01-19T06:33:55.229Z,14.25
2023-01-19T06:34:56.774Z,14.27
2023-01-19T06:35:58.656Z,14.30
2023-01-19T06:37:00.215Z,14.30
2023-01-19T06:38:01.836Z,14.29
2023-01-19T06:39:05.889Z,14.32
2023-01-19T06:40:08.536Z,14.34
2023-01-19T06:41:10.076Z,14.31
2023-01-19T06:42:11.913Z,14.30
2023-01-19T06:43:13.523Z,14.32
2023-01-19T06:44:15.220Z,14.37
2023-01-19T06:45:16.803Z,14.44
2023-01-19T06:46:18.567Z,14.41
2023-01-19T06:47:20.283Z,14.43
2023-01-19T06:48:21.946Z,14.42
2023-01-19T06:49:23.574Z,14.41
2023-01-19T06:50:25.250Z,14.41
2023-01-19T06:51:27.019Z,14.45
2023-01-19T06:52:28.579Z,14.45
2023-01-19T06:53:30.237Z,14.49
2023-01-19T06:54:31.921Z,14.51
2023-01-19T06:55:35.742Z,14.46
2023-01-19T06:56:37.611Z,14.39
2023-01-19T06:57:40.245Z,14.39
2023-01-19T06:58:42.734Z,14.42
2023-01-19T06:59:44.413Z,14.43
2023-01-19T07:00:46.352Z,14.49
2023-01-19T07:01:48.026Z,14.43
2023-01-19T07:02:49.900Z,14.43
2023-01-19T07:03:51.611Z,14.41
2023-01-19T07:04:53.129Z,14.41
2023-01-19T07:05:54.936Z,14.43
2023-01-19T07:06:56.578Z,14.43
2023-01-19T07:07:58.184Z,14.48
2023-01-19T07:09:00.312Z,14.51
2023-01-19T07:10:01.848Z,14.52
2023-01-19T07:11:24.989Z,14.55
2023-01-19T07:12:28.036Z,14.54
2023-01-19T07:13:29.868Z,14.51
2023-01-19T07:14:34.030Z,14.51
2023-01-19T07:15:35.665Z,14.52
2023-01-19T07:16:37.316Z,14.54
2023-01-19T07:17:38.907Z,14.57
2023-01-19T07:18:40.843Z,14.57
2023-01-19T07:19:42.504Z,14.56
2023-01-19T07:20:45.981Z,14.50
2023-01-19T07:21:47.497Z,14.53
2023-01-19T07:22:56.231Z,14.52
2023-01-19T07:23:57.968Z,14.57
2023-01-19T07:24:59.497Z,14.60
2023-01-19T07:26:04.485Z,14.56
2023-01-19T07:27:06.042Z,14.63
2023-01-19T07:28:07.589Z,14.59
2023-01-19T07:29:09.269Z,14.58
2023-01-19T07:30:11.320Z,14.62
2023-01-19T07:31:13.038Z,14.60
2023-01-19T07:32:14.957Z,14.65
2023-01-19T07:33:16.468Z,14.68
2023-01-19T07:34:18.120Z,14.65
2023-01-19T07:35:19.632Z,14.68
2023-01-19T07:36:21.210Z,14.68
2023-01-19T07:37:22.757Z,14.68
2023-01-19T07:38:24.317Z,14.69
2023-01-19T07:39:25.904Z,14.71
2023-01-19T07:40:28.264Z,14.77
2023-01-19T07:41:29.902Z,14.71
2023-01-19T07:42:31.517Z,14.73
2023-01-19T07:43:34.038Z,14.72
2023-01-19T07:44:35.703Z,14.74
2023-01-19T07:45:37.261Z,14.73
2023-01-19T07:46:38.790Z,14.74
2023-01-19T07:47:42.455Z,14.74
2023-01-19T07:48:44.650Z,14.75
2023-01-19T07:49:46.483Z,14.85
2023-01-19T07:50:48.460Z,14.81
2023-01-19T07:51:50.035Z,14.87
2023-01-19T07:52:53.623Z,14.90
2023-01-19T07:53:55.209Z,14.86
2023-01-19T07:54:56.805Z,14.89
2023-01-19T07:55:58.402Z,14.94
2023-01-19T07:57:03.167Z,14.88
2023-01-19T07:58:07.388Z,14.92
2023-01-19T07:59:10.249Z,14.92
2023-01-19T08:00:14.463Z,14.96
2023-01-19T08:01:16.106Z,14.89
2023-01-19T08:02:17.737Z,14.91
2023-01-19T08:03:19.390Z,14.94
2023-01-19T08:04:21.226Z,14.97
2023-01-19T08:05:23.564Z,14.92
2023-01-19T08:06:32.892Z,14.94
2023-01-19T08:07:34.805Z,14.97
2023-01-19T08:08:36.420Z,14.94
2023-01-19T08:09:37.924Z,14.94
2023-01-19T08:10:39.495Z,14.99
2023-01-19T08:11:41.147Z,15.04
2023-01-19T08:12:42.807Z,14.95
2023-01-19T08:13:44.510Z,14.94
2023-01-19T08:14:46.064Z,14.88
2023-01-19T08:15:51.898Z,14.95
2023-01-19T08:16:53.498Z,14.86
2023-01-19T08:18:00.457Z,14.86
2023-01-19T08:19:02.386Z,14.84
2023-01-19T08:20:04.697Z,14.85
2023-01-19T08:21:06.383Z,14.89
2023-01-19T08:22:07.920Z,14.89
2023-01-19T08:23:09.674Z,14.88
2023-01-19T08:24:18.933Z,14.83
2023-01-19T08:25:20.537Z,14.85
2023-01-19T08:26:33.964Z,14.85
2023-01-19T08:27:35.527Z,14.86
2023-01-19T08:28:37.064Z,14.86
2023-01-19T08:29:38.667Z,14.91
2023-01-19T08:30:40.821Z,14.97
2023-01-19T08:31:42.614Z,14.92
2023-01-19T08:32:44.654Z,14.90
2023-01-19T08:33:46.157Z,14.92
2023-01-19T08:34:47.749Z,14.89
2023-01-19T08:35:52.098Z,14.94
2023-01-19T08:36:54.074Z,14.96
2023-01-19T08:37:55.952Z,14.99
2023-01-19T08:38:57.596Z,14.94
2023-01-19T08:39:59.163Z,14.92
2023-01-19T08:41:00.763Z,14.92
2023-01-19T08:42:02.549Z,14.94
2023-01-19T08:43:07.946Z,15.00
2023-01-19T08:44:09.597Z,15.06
2023-01-19T08:45:11.428Z,15.03
2023-01-19T08:46:17.067Z,15.02
2023-01-19T08:47:18.784Z,15.01
2023-01-19T08:48:24.823Z,15.05
2023-01-19T08:49:26.390Z,15.03
2023-01-19T08:50:32.138Z,15.01
2023-01-19T08:51:33.814Z,15.03
2023-01-19T08:52:35.655Z,15.01
2023-01-19T08:53:37.159Z,14.99
2023-01-19T08:54:38.714Z,15.01
2023-01-19T08:55:40.866Z,15.00
2023-01-19T08:56:43.149Z,15.04
2023-01-19T08:57:44.671Z,15.02
2023-01-19T08:58:53.674Z,15.03
2023-01-19T09:00:07.917Z,15.07
2023-01-19T09:01:10.684Z,15.11
2023-01-19T09:02:12.415Z,15.14
2023-01-19T09:03:14.124Z,15.13
2023-01-19T09:04:15.785Z,15.13
2023-01-19T09:05:18.162Z,15.16
2023-01-19T09:06:19.846Z,15.15
2023-01-19T09:07:21.457Z,15.16
2023-01-19T09:08:22.994Z,15.15
2023-01-19T09:09:24.519Z,15.18
2023-01-19T09:10:26.363Z,15.18
2023-01-19T09:11:27.899Z,15.20
2023-01-19T09:12:29.531Z,15.21
2023-01-19T09:13:31.046Z,15.17
2023-01-19T09:14:32.773Z,15.14
2023-01-19T09:15:37.583Z,15.20
2023-01-19T09:16:39.377Z,15.22
2023-01-19T09:17:42.359Z,15.17
2023-01-19T09:18:45.763Z,15.21
2023-01-19T09:19:47.293Z,15.15
2023-01-19T09:20:50.191Z,15.15
2023-01-19T09:21:54.396Z,15.17
2023-01-19T09:22:56.391Z,15.19
2023-01-19T09:23:58.065Z,15.20
2023-01-19T09:25:00.309Z,15.16
2023-01-19T09:26:03.713Z,15.14
2023-01-19T09:27:05.297Z,15.15
2023-01-19T09:28:09.289Z,15.18
2023-01-19T09:29:10.818Z,15.22
2023-01-19T09:30:12.978Z,15.30
2023-01-19T09:31:15.153Z,15.40
2023-01-19T09:32:16.781Z,15.56
2023-01-19T09:33:19.973Z,15.60
2023-01-19T09:34:23.119Z,15.57
2023-01-19T09:35:24.627Z,15.62
2023-01-19T09:36:26.148Z,15.67
2023-01-19T09:37:27.698Z,15.73
2023-01-19T09:38:32.707Z,15.88
2023-01-19T09:39:34.411Z,15.98
2023-01-19T09:40:51.964Z,16.12
2023-01-19T09:42:19.602Z,16.26
2023-01-19T09:43:28.458Z,16.37
2023-01-19T09:44:33.747Z,16.31
2023-01-19T09:45:46.094Z,16.24
2023-01-19T09:46:47.743Z,16.33
2023-01-19T09:47:51.024Z,16.29
2023-01-19T09:48:58.621Z,16.33
2023-01-19T09:50:05.518Z,16.42
2023-01-19T09:51:13.923Z,16.32
2023-01-19T09:52:15.753Z,16.17
2023-01-19T09:53:34.243Z,16.09
2023-01-19T09:54:44.432Z,16.01
2023-01-19T09:55:46.000Z,15.95
2023-01-19T09:56:52.498Z,15.75
2023-01-19T09:57:54.696Z,15.71
2023-01-19T09:58:56.500Z,15.67
2023-01-19T09:59:59.665Z,15.65
2023-01-19T10:01:16.867Z,15.62
2023-01-19T10:02:46.818Z,15.52
2023-01-19T10:03:51.581Z,15.50
2023-01-19T10:05:00.332Z,15.59
2023-01-19T10:06:06.148Z,15.64
2023-01-19T10:07:38.582Z,15.58
2023-01-19T10:09:05.338Z,15.57
2023-01-19T10:10:31.783Z,15.48
2023-01-19T10:11:51.643Z,15.54
2023-01-19T10:13:31.074Z,15.64
2023-01-19T10:14:48.195Z,15.75
2023-01-19T10:16:05.136Z,15.66
2023-01-19T10:17:21.769Z,15.65
2023-01-19T10:18:34.895Z,15.62
2023-01-19T10:19:41.973Z,15.55
2023-01-19T10:21:00.107Z,15.54
2023-01-19T10:22:10.066Z,15.53
2023-01-19T10:23:46.331Z,15.57
2023-01-19T10:24:52.320Z,15.55
2023-01-19T10:25:55.447Z,15.60
2023-01-19T10:26:57.180Z,15.66
2023-01-19T10:28:00.808Z,15.63
2023-01-19T10:29:06.723Z,15.65
2023-01-19T10:30:15.128Z,15.70
2023-01-19T10:31:23.416Z,15.70
2023-01-19T10:32:36.054Z,15.74
2023-01-19T10:33:38.560Z,15.79
2023-01-19T10:34:41.652Z,15.89
2023-01-19T10:35:45.075Z,15.99
2023-01-19T10:36:49.289Z,16.04
2023-01-19T10:37:58.393Z,16.07
2023-01-19T10:39:00.028Z,16.10
2023-01-19T10:40:27.356Z,16.09
2023-01-19T10:41:45.085Z,16.14
2023-01-19T10:42:46.602Z,16.30
2023-01-19T10:43:48.570Z,16.36
2023-01-19T10:44:50.396Z,16.42
2023-01-19T10:45:52.091Z,16.42
2023-01-19T10:46:57.477Z,16.43
2023-01-19T10:48:06.927Z,16.39
2023-01-19T10:49:25.704Z,16.40
2023-01-19T10:50:33.778Z,16.51
2023-01-19T10:51:47.178Z,16.62
2023-01-19T10:52:54.522Z,16.65
2023-01-19T10:54:01.734Z,16.57
2023-01-19T10:55:06.724Z,16.59
2023-01-19T10:56:21.295Z,16.49
2023-01-19T10:57:29.447Z,16.42
2023-01-19T10:58:34.906Z,16.49
2023-01-19T10:59:56.738Z,16.55
2023-01-19T11:01:23.769Z,16.48
2023-01-19T11:02:30.934Z,16.44
2023-01-19T11:03:32.603Z,16.44
2023-01-19T11:04:34.181Z,16.38
2023-01-19T11:05:35.733Z,16.35
2023-01-19T11:06:37.352Z,16.25
2023-01-19T11:07:38.869Z,16.14
2023-01-19T11:08:40.825Z,16.28
2023-01-19T11:09:42.583Z,16.38
2023-01-19T11:10:54.120Z,16.33
2023-01-19T11:11:55.871Z,16.23
2023-01-19T11:13:04.852Z,16.27
2023-01-19T11:14:17.249Z,16.39
2023-01-19T11:15:30.800Z,16.36
2023-01-19T11:16:34.877Z,16.39
2023-01-19T11:17:36.854Z,16.43
2023-01-19T11:18:40.868Z,16.53
2023-01-19T11:19:42.601Z,16.58
2023-01-19T11:20:52.245Z,16.59
2023-01-19T11:22:09.869Z,16.52
2023-01-19T11:23:14.257Z,16.58
2023-01-19T11:24:16.789Z,16.63
2023-01-19T11:25:31.233Z,16.58
2023-01-19T11:26:43.441Z,16.55
2023-01-19T11:27:51.293Z,16.46
2023-01-19T11:28:56.054Z,16.45
2023-01-19T11:30:08.021Z,16.56
2023-01-19T11:31:15.644Z,16.77
2023-01-19T11:32:22.649Z,16.87
2023-01-19T11:33:37.117Z,16.77
2023-01-19T11:34:39.269Z,16.69
2023-01-19T11:35:41.640Z,16.73
2023-01-19T11:37:54.547Z,16.81
2023-01-19T11:39:04.137Z,16.67
2023-01-19T11:40:08.918Z,16.63
2023-01-19T11:41:28.239Z,16.72
2023-01-19T11:42:33.371Z,16.74
2023-01-19T11:43:48.216Z,16.71
2023-01-19T11:45:13.512Z,16.65
2023-01-19T11:46:15.493Z,16.77
2023-01-19T11:47:30.746Z,16.91
2023-01-19T11:48:37.096Z,17.06
2023-01-19T11:49:57.113Z,17.15
2023-01-19T11:51:02.520Z,17.13
2023-01-19T11:52:27.214Z,17.21
2023-01-19T11:53:33.967Z,17.22
2023-01-19T11:54:46.023Z,17.18
2023-01-19T11:56:04.913Z,17.27
2023-01-19T11:57:13.431Z,17.37
2023-01-19T11:58:17.268Z,17.36
2023-01-19T11:59:19.803Z,17.33
2023-01-19T12:00:31.551Z,17.45
2023-01-19T12:01:37.763Z,17.30
2023-01-19T12:02:45.581Z,17.25
2023-01-19T12:03:55.030Z,17.34
2023-01-19T12:05:04.788Z,17.33
2023-01-19T12:06:18.281Z,17.11
2023-01-19T12:07:28.981Z,17.20
2023-01-19T12:08:39.659Z,17.34
2023-01-19T12:09:45.020Z,17.21
2023-01-19T12:10:48.131Z,17.18
2023-01-19T12:11:57.664Z,17.18
2023-01-19T12:13:00.320Z,17.13
2023-01-19T12:14:02.798Z,17.12
2023-01-19T12:15:29.096Z,17.04
2023-01-19T12:16:34.673Z,16.99
2023-01-19T12:17:44.672Z,17.02
2023-01-19T12:19:13.185Z,17.00
2023-01-19T12:20:29.077Z,17.08
2023-01-19T12:21:30.835Z,17.16
2023-01-19T12:22:40.812Z,17.19
2023-01-19T12:23:53.606Z,17.33
2023-01-19T12:25:06.148Z,17.02
2023-01-19T12:26:16.753Z,17.14
2023-01-19T12:27:37.631Z,17.21
2023-01-19T12:28:42.043Z,17.09
2023-01-19T12:29:45.450Z,17.05
2023-01-19T12:30:48.919Z,17.08
2023-01-19T12:32:18.471Z,16.98
2023-01-19T12:33:20.981Z,16.87
2023-01-19T12:34:25.313Z,16.95
2023-01-19T12:35:54.684Z,16.96
2023-01-19T12:37:01.869Z,17.11
2023-01-19T12:38:34.628Z,17.17
2023-01-19T12:39:48.961Z,17.06
2023-01-19T12:40:50.606Z,17.07
2023-01-19T12:42:28.628Z,17.05
2023-01-19T12:43:30.222Z,16.99
2023-01-19T12:44:34.358Z,16.98
2023-01-19T12:45:39.750Z,17.03
2023-01-19T12:46:43.784Z,17.07
2023-01-19T12:47:53.235Z,17.14
2023-01-19T12:48:56.249Z,17.14
2023-01-19T12:50:06.840Z,17.19
2023-01-19T12:51:08.433Z,16.97
2023-01-19T12:52:36.211Z,16.90
2023-01-19T12:53:37.946Z,16.88
2023-01-19T12:55:14.992Z,16.84
2023-01-19T12:56:17.642Z,16.79
2023-01-19T12:57:27.284Z,16.78
2023-01-19T12:58:29.236Z,16.69
2023-01-19T12:59:33.037Z,16.62
2023-01-19T13:00:37.818Z,16.61
2023-01-19T13:01:39.568Z,16.55
2023-01-19T13:02:42.748Z,16.58
2023-01-19T13:04:09.187Z,16.65
2023-01-19T13:05:10.761Z,16.62
2023-01-19T13:06:12.510Z,16.57
2023-01-19T13:07:18.020Z,16.54
2023-01-19T13:08:22.164Z,16.54
2023-01-19T13:09:30.582Z,16.53
2023-01-19T13:11:00.024Z,16.55
2023-01-19T13:12:13.840Z,16.58
2023-01-19T13:13:21.960Z,16.57
2023-01-19T13:14:37.724Z,16.60
2023-01-19T13:15:39.392Z,16.62
2023-01-19T13:16:40.918Z,16.53
2023-01-19T13:17:51.092Z,16.47
2023-01-19T13:18:56.170Z,16.46
2023-01-19T13:20:03.126Z,16.44
2023-01-19T13:21:07.373Z,16.38
2023-01-19T13:22:50.147Z,16.34
2023-01-19T13:23:54.208Z,16.25
2023-01-19T13:25:13.845Z,16.25
2023-01-19T13:26:23.675Z,16.25
2023-01-19T13:27:28.573Z,16.28
2023-01-19T13:28:41.650Z,16.20
2023-01-19T13:29:43.955Z,16.11
2023-01-19T13:30:55.433Z,16.13
2023-01-19T13:32:02.867Z,16.15
2023-01-19T13:33:15.391Z,16.21
2023-01-19T13:34:25.572Z,16.19
2023-01-19T13:35:27.282Z,16.20
2023-01-19T13:36:35.212Z,16.21
2023-01-19T13:37:43.390Z,16.23
2023-01-19T13:38:45.391Z,16.22
2023-01-19T13:39:50.160Z,16.20
2023-01-19T13:40:54.896Z,16.20
2023-01-19T13:42:01.027Z,16.15
2023-01-19T13:43:03.319Z,16.17
2023-01-19T13:44:10.787Z,16.17
2023-01-19T13:45:27.551Z,16.19
2023-01-19T13:46:31.096Z,16.18
2023-01-19T13:47:45.330Z,16.15
2023-01-19T13:49:13.496Z,16.13
2023-01-19T13:50:29.956Z,16.11
2023-01-19T13:51:31.968Z,16.11
2023-01-19T13:52:33.555Z,16.10
2023-01-19T13:53:35.543Z,16.11
2023-01-19T13:54:37.224Z,16.03
2023-01-19T13:55:38.852Z,16.06
2023-01-19T13:56:42.102Z,16.05
2023-01-19T13:57:48.033Z,16.09
2023-01-19T13:59:10.395Z,16.08
2023-01-19T14:00:12.117Z,15.99
2023-01-19T14:01:21.990Z,15.98
2023-01-19T14:02:23.909Z,15.98
2023-01-19T14:03:25.719Z,15.98
2023-01-19T14:04:33.845Z,15.99